Time;durP1;ratioP1;P1;durP2;ratioP2;P2;SDS_P1;SDS_P2;PMS_P1;PMS_P2;Temp;Humidity;BMP_temperature;BMP_pressure;BME280_temperature;BME280_humidity;BME280_pressure;Samples;Min_cycle;Max_cycle;Signal;HPM_P1;HPM_P2
2021/04/03 00:00:17;;;;;;;4.10;2.33;;;8.20;99.90;;;;;;4983350;28;20157;-83
2021/04/03 00:02:42;;;;;;;7.25;2.30;;;8.20;99.90;;;;;;4988650;28;20018;-83
2021/04/03 00:05:10;;;;;;;8.55;2.33;;;8.20;99.90;;;;;;4987976;28;20121;-83
2021/04/03 00:07:36;;;;;;;5.65;2.28;;;8.10;99.90;;;;;;4988731;28;20027;-82
2021/04/03 00:10:08;;;;;;;3.22;1.80;;;8.00;99.90;;;;;;4988915;28;20670;-82
2021/04/03 00:12:34;;;;;;;4.43;2.60;;;8.00;99.90;;;;;;4991900;28;20154;-83
2021/04/03 00:15:03;;;;;;;4.38;2.25;;;8.00;99.90;;;;;;4991906;28;20548;-83
2021/04/03 00:17:29;;;;;;;6.20;2.67;;;8.00;99.90;;;;;;4984609;28;20026;-83
2021/04/03 00:19:55;;;;;;;8.77;2.35;;;8.00;99.90;;;;;;4992186;28;20018;-83
2021/04/03 00:22:24;;;;;;;5.40;2.38;;;8.00;99.90;;;;;;4992914;28;20109;-83
2021/04/03 00:24:50;;;;;;;4.35;2.25;;;8.00;99.90;;;;;;4991450;28;20027;-83
2021/04/03 00:27:16;;;;;;;7.20;3.00;;;7.90;99.90;;;;;;4991414;28;20033;-83
2021/04/03 00:29:41;;;;;;;4.45;2.47;;;7.90;99.90;;;;;;4990935;28;20030;-83
2021/04/03 00:32:10;;;;;;;3.33;2.28;;;7.80;99.90;;;;;;4989441;28;20043;-83
2021/04/03 00:34:36;;;;;;;7.47;2.20;;;7.80;99.90;;;;;;4992838;28;20503;-83
2021/04/03 00:37:01;;;;;;;8.32;2.40;;;7.80;99.90;;;;;;4984068;28;20027;-83
2021/04/03 00:39:27;;;;;;;3.50;1.95;;;7.70;99.90;;;;;;4982262;28;20113;-83
2021/04/03 00:41:53;;;;;;;5.82;2.33;;;7.60;99.90;;;;;;4982498;28;20118;-83
2021/04/03 00:44:18;;;;;;;6.25;2.53;;;7.60;99.90;;;;;;4983838;28;20556;-84
2021/04/03 00:46:44;;;;;;;5.95;2.40;;;7.60;99.90;;;;;;4988182;28;20030;-82
2021/04/03 00:49:10;;;;;;;4.45;2.10;;;7.50;99.90;;;;;;4991329;28;20093;-83
2021/04/03 00:51:35;;;;;;;9.82;2.60;;;7.50;99.90;;;;;;4988370;28;20042;-82
2021/04/03 00:54:01;;;;;;;5.13;2.33;;;7.40;99.90;;;;;;4986850;28;20077;-83
2021/04/03 00:56:30;;;;;;;5.05;2.15;;;7.40;99.90;;;;;;4988472;28;20474;-83
2021/04/03 00:58:56;;;;;;;7.10;2.63;;;7.40;99.90;;;;;;4970781;28;20039;-83
2021/04/03 01:01:21;;;;;;;4.32;2.53;;;7.40;99.90;;;;;;4985066;28;20031;-82
2021/04/03 01:03:47;;;;;;;4.72;1.92;;;7.30;99.90;;;;;;4991437;28;20041;-82
2021/04/03 01:06:13;;;;;;;4.00;2.13;;;7.30;99.90;;;;;;4989505;28;20050;-82
2021/04/03 01:08:38;;;;;;;9.27;2.40;;;7.30;99.90;;;;;;4991504;28;20061;-83
2021/04/03 01:11:05;;;;;;;4.88;2.65;;;7.20;99.90;;;;;;4988903;28;20066;-82
2021/04/03 01:13:39;;;;;;;10.77;2.53;;;7.20;99.90;;;;;;4984859;28;20038;-83
2021/04/03 01:16:19;;;;;;;8.38;2.53;;;7.20;99.90;;;;;;4990961;28;20102;-82
2021/04/03 01:18:56;;;;;;;4.07;2.35;;;7.10;99.90;;;;;;4990538;28;20022;-83
2021/04/03 01:21:31;;;;;;;3.78;2.28;;;7.10;99.90;;;;;;4991250;28;20496;-83
2021/04/03 01:24:26;;;;;;;5.47;2.50;;;7.10;99.90;;;;;;4985367;28;20034;-83
2021/04/03 01:27:03;;;;;;;5.35;2.40;;;7.10;99.90;;;;;;4981920;28;20501;-83
2021/04/03 01:29:28;;;;;;;7.47;2.50;;;7.10;99.90;;;;;;4990552;28;20382;-82
2021/04/03 01:32:00;;;;;;;5.63;2.30;;;7.10;99.90;;;;;;4987591;28;20033;-83
2021/04/03 01:34:28;;;;;;;5.93;2.42;;;7.00;99.90;;;;;;4991047;28;20022;-82
2021/04/03 01:37:00;;;;;;;5.65;2.30;;;7.00;99.90;;;;;;4991665;28;20085;-82
2021/04/03 01:39:28;;;;;;;4.05;2.40;;;6.90;99.90;;;;;;4990458;28;20160;-83
2021/04/03 01:42:00;;;;;;;8.13;2.50;;;6.90;99.90;;;;;;4981117;28;20109;-82
2021/04/03 01:44:32;;;;;;;5.53;2.40;;;6.90;99.90;;;;;;4976009;28;20041;-82
2021/04/03 01:46:59;;;;;;;5.60;2.00;;;6.90;99.90;;;;;;4982873;28;20405;-82
2021/04/03 01:49:25;;;;;;;4.78;2.67;;;6.80;99.90;;;;;;4981879;28;20027;-83
2021/04/03 01:51:52;;;;;;;6.10;2.40;;;6.80;99.90;;;;;;4986032;28;20054;-83
2021/04/03 01:54:19;;;;;;;5.55;2.65;;;6.80;99.90;;;;;;4990562;28;20018;-83
2021/04/03 01:56:48;;;;;;;8.13;2.78;;;6.80;99.90;;;;;;4973867;28;20022;-83
2021/04/03 01:59:15;;;;;;;5.70;2.33;;;6.80;99.90;;;;;;4986681;28;20445;-83
2021/04/03 02:01:43;;;;;;;6.35;2.28;;;6.80;99.90;;;;;;4990246;28;20129;-83
2021/04/03 02:04:11;;;;;;;5.88;2.40;;;6.70;99.90;;;;;;4990810;28;20037;-82
2021/04/03 02:06:42;;;;;;;9.93;2.40;;;6.70;99.90;;;;;;4981433;28;20363;-82
2021/04/03 02:09:11;;;;;;;4.43;2.45;;;6.70;99.90;;;;;;4990242;28;20081;-82
2021/04/03 02:11:38;;;;;;;5.15;2.35;;;6.60;99.90;;;;;;4980702;28;20033;-82
2021/04/03 02:14:05;;;;;;;8.75;2.20;;;6.60;99.90;;;;;;4971557;28;20026;-82
2021/04/03 02:16:34;;;;;;;10.85;2.40;;;6.50;99.90;;;;;;4965223;28;20117;-83
2021/04/03 02:19:03;;;;;;;5.63;2.53;;;6.50;99.90;;;;;;4986877;28;20161;-83
2021/04/03 02:21:30;;;;;;;5.72;2.50;;;6.50;99.90;;;;;;4986892;28;20039;-83
2021/04/03 02:23:56;;;;;;;6.75;2.90;;;6.50;99.90;;;;;;4990313;28;20034;-83
2021/04/03 02:26:22;;;;;;;7.68;2.50;;;6.40;99.90;;;;;;4990921;28;20038;-83
2021/04/03 02:28:49;;;;;;;5.18;2.33;;;6.40;99.90;;;;;;4987915;28;20042;-83
2021/04/03 02:31:48;;;;;;;7.03;2.80;;;6.40;99.90;;;;;;4989740;28;20113;-83
2021/04/03 02:34:13;;;;;;;7.32;2.60;;;6.40;99.90;;;;;;4981163;28;20493;-82
2021/04/03 02:36:39;;;;;;;7.07;2.63;;;6.40;99.90;;;;;;4991027;28;20034;-83
2021/04/03 02:39:04;;;;;;;6.10;3.13;;;6.40;99.90;;;;;;4972010;28;20026;-83
2021/04/03 02:41:41;;;;;;;7.03;2.55;;;6.40;99.90;;;;;;4968332;28;20038;-83
2021/04/03 02:44:20;;;;;;;7.75;2.47;;;6.40;99.90;;;;;;4988138;28;20038;-83
2021/04/03 02:46:50;;;;;;;6.95;2.60;;;6.30;99.90;;;;;;4985735;28;20066;-83
2021/04/03 02:49:21;;;;;;;5.32;2.72;;;6.30;99.90;;;;;;4984288;28;20076;-83
2021/04/03 02:51:49;;;;;;;5.13;2.53;;;6.20;99.90;;;;;;4988500;28;20042;-83
2021/04/03 02:54:17;;;;;;;5.07;2.40;;;6.20;99.90;;;;;;4989863;28;20553;-83
2021/04/03 02:56:44;;;;;;;7.93;2.53;;;6.20;99.90;;;;;;4968167;28;20030;-83
2021/04/03 02:59:18;;;;;;;8.25;2.53;;;6.20;99.90;;;;;;4989421;28;20101;-83
2021/04/03 03:01:46;;;;;;;8.55;2.90;;;6.20;99.90;;;;;;4983626;28;20417;-82
2021/04/03 03:04:15;;;;;;;4.70;2.42;;;6.10;99.90;;;;;;4989474;28;20034;-82
2021/04/03 03:06:42;;;;;;;11.23;2.70;;;6.10;99.90;;;;;;4982131;28;20030;-82
2021/04/03 03:09:09;;;;;;;6.53;2.92;;;6.10;99.90;;;;;;4989405;28;20031;-83
2021/04/03 03:11:37;;;;;;;4.97;2.25;;;6.10;99.90;;;;;;4989152;28;20105;-82
2021/04/03 03:14:04;;;;;;;8.40;2.65;;;6.10;99.90;;;;;;4989056;28;20049;-83
2021/04/03 03:16:30;;;;;;;10.13;2.58;;;6.10;99.90;;;;;;4984717;28;20035;-83
2021/04/03 03:18:57;;;;;;;9.73;2.75;;;6.00;99.90;;;;;;4988935;28;20042;-83
2021/04/03 03:21:23;;;;;;;3.67;2.60;;;6.00;99.90;;;;;;4988532;28;20030;-83
2021/04/03 03:23:49;;;;;;;6.50;2.40;;;6.00;99.90;;;;;;4985292;28;20026;-83
2021/04/03 03:26:14;;;;;;;6.85;2.30;;;6.00;99.90;;;;;;4990245;28;20501;-83
2021/04/03 03:28:41;;;;;;;7.57;3.03;;;6.00;99.90;;;;;;4983489;28;20026;-83
2021/04/03 03:31:07;;;;;;;5.25;2.50;;;5.90;99.90;;;;;;4978341;28;20042;-82
2021/04/03 03:33:32;;;;;;;7.07;2.63;;;5.90;99.90;;;;;;4987388;28;20030;-83
2021/04/03 03:35:58;;;;;;;6.07;2.47;;;5.90;99.90;;;;;;4981849;28;20106;-83
2021/04/03 03:38:24;;;;;;;5.50;2.53;;;5.80;99.90;;;;;;4984497;28;20033;-82
2021/04/03 03:40:54;;;;;;;5.88;2.78;;;5.80;99.90;;;;;;4990006;28;20139;-83
2021/04/03 03:43:19;;;;;;;6.43;3.03;;;5.80;99.90;;;;;;4986090;28;20034;-82
2021/04/03 03:45:45;;;;;;;5.53;2.50;;;5.80;99.90;;;;;;4980303;28;20030;-83
2021/04/03 03:48:11;;;;;;;6.40;2.47;;;5.80;99.90;;;;;;4976149;28;20470;-83
2021/04/03 03:50:37;;;;;;;6.93;2.35;;;5.80;99.90;;;;;;4977343;28;20058;-83
2021/04/03 03:53:03;;;;;;;5.60;2.97;;;5.80;99.90;;;;;;4993616;28;20072;-83
2021/04/03 03:55:29;;;;;;;6.28;2.53;;;5.80;99.90;;;;;;4985251;28;20030;-83
2021/04/03 03:57:54;;;;;;;9.50;2.88;;;5.70;99.90;;;;;;4974262;28;20027;-83
2021/04/03 04:00:20;;;;;;;6.60;2.65;;;5.60;99.90;;;;;;4990117;28;20045;-83
2021/04/03 04:02:46;;;;;;;8.48;2.58;;;5.70;99.90;;;;;;4992541;28;20141;-82
2021/04/03 04:05:12;;;;;;;6.00;2.60;;;5.70;99.90;;;;;;4990306;28;20109;-82
2021/04/03 04:07:37;;;;;;;5.40;2.63;;;5.70;99.90;;;;;;4992581;28;20512;-82
2021/04/03 04:10:07;;;;;;;7.30;2.83;;;5.60;99.90;;;;;;4991524;28;20038;-82
2021/04/03 04:12:35;;;;;;;8.93;2.78;;;5.60;99.90;;;;;;4990834;28;20042;-83
2021/04/03 04:15:01;;;;;;;8.68;2.60;;;5.60;99.90;;;;;;4991904;28;20033;-83
2021/04/03 04:17:26;;;;;;;5.95;3.03;;;5.60;99.90;;;;;;4980250;28;20381;-82
2021/04/03 04:19:52;;;;;;;8.50;2.85;;;5.60;99.90;;;;;;4992904;28;20046;-82
2021/04/03 04:22:17;;;;;;;6.75;2.53;;;5.60;99.90;;;;;;4989440;28;20117;-82
2021/04/03 04:24:43;;;;;;;8.40;2.97;;;5.60;99.90;;;;;;4992558;28;20109;-82
2021/04/03 04:27:09;;;;;;;8.07;2.83;;;5.50;99.90;;;;;;4990703;28;20034;-82
2021/04/03 04:29:35;;;;;;;8.27;3.08;;;5.50;99.90;;;;;;4982133;28;20062;-83
2021/04/03 04:32:02;;;;;;;6.70;2.95;;;5.50;99.90;;;;;;4981230;28;20089;-83
2021/04/03 04:34:28;;;;;;;3.90;2.42;;;5.50;99.90;;;;;;4985214;28;20045;-83
2021/04/03 04:36:53;;;;;;;7.18;3.50;;;5.50;99.90;;;;;;4986571;28;20035;-82
2021/04/03 04:39:19;;;;;;;10.13;2.72;;;5.40;99.90;;;;;;4991750;28;20089;-82
2021/04/03 04:41:44;;;;;;;5.55;2.80;;;5.50;99.90;;;;;;4989691;28;20053;-82
2021/04/03 04:44:10;;;;;;;5.88;2.97;;;5.50;99.90;;;;;;4979457;28;20125;-82
2021/04/03 04:46:36;;;;;;;5.47;2.90;;;5.50;99.90;;;;;;4978876;28;20030;-82
2021/04/03 04:49:01;;;;;;;9.95;2.97;;;5.50;99.90;;;;;;4992101;28;20585;-82
2021/04/03 04:51:27;;;;;;;5.82;2.65;;;5.50;99.90;;;;;;4984888;28;20049;-82
2021/04/03 04:53:52;;;;;;;7.85;2.53;;;5.50;99.90;;;;;;4990542;28;20037;-83
2021/04/03 04:56:17;;;;;;;6.25;2.60;;;5.50;99.90;;;;;;4990112;28;20031;-82
2021/04/03 04:58:43;;;;;;;5.43;2.78;;;5.50;99.90;;;;;;4985471;28;20474;-83
2021/04/03 05:01:08;;;;;;;7.05;2.78;;;5.50;99.90;;;;;;4986263;28;20026;-83
2021/04/03 05:03:34;;;;;;;7.18;2.92;;;5.50;99.90;;;;;;4991394;28;20030;-82
2021/04/03 05:05:59;;;;;;;6.00;2.47;;;5.50;99.90;;;;;;4981190;28;20385;-83
2021/04/03 05:08:25;;;;;;;6.93;2.58;;;5.50;99.90;;;;;;4978372;28;20022;-83
2021/04/03 05:10:51;;;;;;;6.20;2.45;;;5.50;99.90;;;;;;4992655;28;20034;-82
2021/04/03 05:13:16;;;;;;;6.43;2.90;;;5.50;99.90;;;;;;4989128;28;20100;-82
2021/04/03 05:15:42;;;;;;;5.18;2.50;;;5.50;99.90;;;;;;4988371;28;20023;-82
2021/04/03 05:18:07;;;;;;;8.80;2.83;;;5.60;99.90;;;;;;4991034;28;20369;-82
2021/04/03 05:20:33;;;;;;;9.60;3.30;;;5.50;99.90;;;;;;4988538;28;20058;-82
2021/04/03 05:22:58;;;;;;;6.28;2.80;;;5.60;99.90;;;;;;4983904;28;20054;-82
2021/04/03 05:25:24;;;;;;;6.43;2.72;;;5.60;99.90;;;;;;4990895;28;20023;-81
2021/04/03 05:27:50;;;;;;;6.10;2.38;;;5.60;99.90;;;;;;4989640;28;20026;-81
2021/04/03 05:30:16;;;;;;;6.43;3.08;;;5.50;99.90;;;;;;4984951;28;20105;-82
2021/04/03 05:32:41;;;;;;;6.28;3.10;;;5.50;99.90;;;;;;4984746;28;20110;-83
2021/04/03 05:35:07;;;;;;;5.13;2.53;;;5.60;99.90;;;;;;4985356;28;20053;-82
2021/04/03 05:37:33;;;;;;;13.02;3.28;;;5.60;99.90;;;;;;4991271;28;20034;-85
2021/04/03 05:39:58;;;;;;;7.25;2.92;;;5.60;99.90;;;;;;4986204;28;20034;-83
2021/04/03 05:42:31;;;;;;;5.70;2.95;;;5.60;99.90;;;;;;4989089;28;20501;-82
2021/04/03 05:45:00;;;;;;;5.35;2.45;;;5.60;99.90;;;;;;4990044;28;20026;-82
2021/04/03 05:47:25;;;;;;;9.40;3.42;;;5.60;99.90;;;;;;4982518;28;20058;-82
2021/04/03 05:49:51;;;;;;;4.40;2.63;;;5.60;99.90;;;;;;4981663;28;20520;-83
2021/04/03 05:52:17;;;;;;;9.15;3.05;;;5.60;99.90;;;;;;4988532;28;20046;-82
2021/04/03 05:54:43;;;;;;;10.95;2.92;;;5.70;99.90;;;;;;4986839;28;20048;-83
2021/04/03 05:57:09;;;;;;;6.78;3.95;;;5.80;99.90;;;;;;4984871;28;20105;-83
2021/04/03 05:59:35;;;;;;;7.00;2.90;;;5.80;99.90;;;;;;4986849;28;20022;-77
2021/04/03 06:02:03;;;;;;;6.75;2.90;;;5.80;99.90;;;;;;4982863;28;20117;-79
2021/04/03 06:04:28;;;;;;;4.47;2.47;;;5.90;99.90;;;;;;4982796;28;20054;-80
2021/04/03 06:06:55;;;;;;;8.40;2.50;;;5.90;99.90;;;;;;4983238;28;20508;-81
2021/04/03 06:09:20;;;;;;;5.20;2.35;;;5.90;99.90;;;;;;4989405;28;20495;-81
2021/04/03 06:11:48;;;;;;;5.18;2.47;;;5.90;99.90;;;;;;4989527;28;20038;-81
2021/04/03 06:14:14;;;;;;;5.18;2.35;;;5.90;99.90;;;;;;4980301;28;20693;-79
2021/04/03 06:16:49;;;;;;;4.50;2.10;;;6.00;99.90;;;;;;4988002;28;20027;-82
2021/04/03 06:19:25;;;;;;;4.55;2.50;;;6.00;99.90;;;;;;4985716;28;20030;-80
2021/04/03 06:21:53;;;;;;;3.30;2.10;;;6.00;99.90;;;;;;4977237;28;20049;-80
2021/04/03 06:24:36;;;;;;;4.45;2.10;;;6.00;99.90;;;;;;4974188;28;20091;-78
2021/04/03 06:27:15;;;;;;;2.92;1.92;;;6.10;99.90;;;;;;4985666;28;20043;-80
2021/04/03 06:29:49;;;;;;;4.68;2.22;;;6.10;99.90;;;;;;4989020;28;20055;-80
2021/04/03 06:32:26;;;;;;;5.75;2.20;;;6.10;99.90;;;;;;4986324;28;20116;-80
2021/04/03 06:34:53;;;;;;;3.97;1.83;;;6.10;99.90;;;;;;4985566;28;20075;-80
2021/04/03 06:37:27;;;;;;;5.80;1.90;;;6.20;99.90;;;;;;4986750;28;20105;-80
2021/04/03 06:39:59;;;;;;;5.03;1.80;;;6.20;99.90;;;;;;4986703;28;20039;-80
2021/04/03 06:42:42;;;;;;;1.65;1.50;;;6.20;99.90;;;;;;4985293;28;20038;-80
2021/04/03 06:45:29;;;;;;;4.20;2.10;;;6.20;99.90;;;;;;4985911;28;20030;-80
2021/04/03 06:48:06;;;;;;;3.38;1.73;;;6.30;99.90;;;;;;4968965;28;20394;-80
2021/04/03 06:50:53;;;;;;;4.18;1.85;;;6.40;99.90;;;;;;4984180;28;20450;-80
2021/04/03 06:53:19;;;;;;;2.72;1.60;;;6.40;99.90;;;;;;4988158;28;20109;-80
2021/04/03 06:55:47;;;;;;;3.50;1.70;;;6.40;99.90;;;;;;4985949;28;20113;-80
2021/04/03 06:58:13;;;;;;;2.83;1.58;;;6.40;99.90;;;;;;4986073;28;20026;-80
2021/04/03 07:00:39;;;;;;;4.43;1.50;;;6.50;99.90;;;;;;4986254;28;20034;-80
2021/04/03 07:03:24;;;;;;;3.35;1.45;;;6.50;99.90;;;;;;4986243;28;20489;-80
2021/04/03 07:05:50;;;;;;;1.67;1.20;;;6.60;99.70;;;;;;4984578;28;20027;-80
2021/04/03 07:08:17;;;;;;;1.73;1.10;;;6.70;97.80;;;;;;4985202;28;20037;-81
2021/04/03 07:10:42;;;;;;;1.02;0.90;;;6.70;97.70;;;;;;4987885;28;20547;-81
2021/04/03 07:13:10;;;;;;;2.33;1.20;;;6.70;96.80;;;;;;4984951;28;20022;-81
2021/04/03 07:15:36;;;;;;;1.88;1.25;;;6.70;96.50;;;;;;4985921;28;20022;-81
2021/04/03 07:18:06;;;;;;;4.03;1.48;;;6.80;95.60;;;;;;4986266;28;20025;-81
2021/04/03 07:20:34;;;;;;;2.45;1.42;;;6.80;95.40;;;;;;4993344;28;20030;-81
2021/04/03 07:23:02;;;;;;;4.53;1.30;;;6.90;95.30;;;;;;4991742;28;20527;-81
2021/04/03 07:25:33;;;;;;;5.57;1.50;;;6.90;94.10;;;;;;4991261;28;21074;-80
2021/04/03 07:27:59;;;;;;;10.13;1.38;;;7.00;94.30;;;;;;4990491;28;20032;-81
2021/04/03 07:30:40;;;;;;;2.53;0.98;;;7.10;93.70;;;;;;4992492;28;20030;-82
2021/04/03 07:33:19;;;;;;;3.97;1.38;;;7.10;93.80;;;;;;4991432;28;20027;-82
2021/04/03 07:35:48;;;;;;;2.78;1.00;;;7.20;92.70;;;;;;4991291;28;20076;-79
2021/04/03 07:38:20;;;;;;;7.38;1.42;;;7.20;92.40;;;;;;4994517;28;20161;-83
2021/04/03 07:40:59;;;;;;;4.28;1.13;;;7.30;92.50;;;;;;4990248;28;20022;-86
2021/04/03 07:43:36;;;;;;;2.30;0.80;;;7.30;92.60;;;;;;4991065;28;20033;-82
2021/04/03 07:46:27;;;;;;;2.72;1.20;;;7.40;90.80;;;;;;4995678;28;20037;-85
2021/04/03 07:49:00;;;;;;;2.00;1.02;;;7.50;91.60;;;;;;4993563;28;20045;-81
2021/04/03 07:51:25;;;;;;;6.32;1.98;;;7.60;90.00;;;;;;4993106;28;20115;-83
2021/04/03 07:53:53;;;;;;;3.75;1.08;;;7.60;88.80;;;;;;4994135;28;20038;-79
2021/04/03 07:56:21;;;;;;;2.70;1.05;;;7.70;86.20;;;;;;4991850;28;20026;-80
2021/04/03 07:58:52;;;;;;;2.42;1.20;;;7.80;85.50;;;;;;4995978;28;20153;-80
2021/04/03 08:01:19;;;;;;;0.80;0.70;;;7.80;86.30;;;;;;4991602;28;20060;-83
2021/04/03 08:04:02;;;;;;;1.58;0.80;;;7.90;85.30;;;;;;4991493;28;20564;-80
2021/04/03 08:06:39;;;;;;;4.28;0.95;;;8.00;82.90;;;;;;4994629;28;20041;-80
2021/04/03 08:09:17;;;;;;;2.05;1.10;;;8.10;80.60;;;;;;4994815;28;20060;-82
2021/04/03 08:11:45;;;;;;;2.33;1.10;;;8.10;79.70;;;;;;4982879;28;20037;-78
2021/04/03 08:14:11;;;;;;;2.25;0.55;;;8.20;80.00;;;;;;4990163;28;20041;-81
2021/04/03 08:16:38;;;;;;;1.58;0.88;;;8.20;79.00;;;;;;4990979;28;20064;-81
2021/04/03 08:19:05;;;;;;;1.23;0.80;;;8.30;80.70;;;;;;4989629;28;20047;-81
2021/04/03 08:21:45;;;;;;;1.75;0.90;;;8.30;80.00;;;;;;4993220;28;20034;-81
2021/04/03 08:24:12;;;;;;;1.63;0.80;;;8.40;77.70;;;;;;4993500;28;20030;-81
2021/04/03 08:26:39;;;;;;;0.80;0.70;;;8.40;76.70;;;;;;4992058;28;20031;-79
2021/04/03 08:29:07;;;;;;;0.90;0.70;;;8.50;77.40;;;;;;4990078;28;20031;-79
2021/04/03 08:31:34;;;;;;;3.72;0.90;;;8.60;76.90;;;;;;4991292;28;20577;-80
2021/04/03 08:34:03;;;;;;;1.80;0.90;;;8.70;75.90;;;;;;4987602;28;20517;-82
2021/04/03 08:36:32;;;;;;;0.88;0.63;;;8.80;75.30;;;;;;4986635;28;20113;-80
2021/04/03 08:39:02;;;;;;;3.15;1.27;;;8.90;76.10;;;;;;4987192;28;20023;-80
2021/04/03 08:41:28;;;;;;;1.33;0.43;;;8.90;77.50;;;;;;4989197;28;20046;-79
2021/04/03 08:43:56;;;;;;;1.50;0.68;;;9.00;76.20;;;;;;4988273;28;20061;-79
2021/04/03 08:46:24;;;;;;;2.03;0.68;;;9.20;74.90;;;;;;4990176;28;20413;-81
2021/04/03 08:48:59;;;;;;;1.65;0.73;;;9.30;74.00;;;;;;4989408;28;20038;-82
2021/04/03 08:51:25;;;;;;;0.82;0.68;;;9.40;72.60;;;;;;4988776;28;20129;-84
2021/04/03 08:53:55;;;;;;;1.23;0.60;;;9.30;72.40;;;;;;4986380;28;20027;-77
2021/04/03 08:56:27;;;;;;;3.42;0.80;;;9.20;72.10;;;;;;4987894;28;20029;-73
2021/04/03 08:58:54;;;;;;;2.38;0.55;;;9.20;73.60;;;;;;4987702;28;20050;-73
2021/04/03 09:01:21;;;;;;;2.72;0.60;;;9.20;74.30;;;;;;4987348;28;20143;-74
2021/04/03 09:03:48;;;;;;;2.08;0.75;;;9.20;73.30;;;;;;4987892;28;20034;-74
2021/04/03 09:06:14;;;;;;;2.90;0.63;;;9.20;74.20;;;;;;4985782;28;21202;-74
2021/04/03 09:08:40;;;;;;;1.02;0.65;;;9.30;74.10;;;;;;4985685;28;20026;-74
2021/04/03 09:11:05;;;;;;;4.28;0.80;;;9.50;74.10;;;;;;4987642;28;20080;-73
2021/04/03 09:13:33;;;;;;;1.52;0.60;;;9.60;72.20;;;;;;4989496;28;20478;-74
2021/04/03 09:16:10;;;;;;;1.02;0.70;;;9.70;71.90;;;;;;4989014;28;20034;-73
2021/04/03 09:18:36;;;;;;;0.75;0.55;;;9.90;72.30;;;;;;4987600;28;20050;-76
2021/04/03 09:21:02;;;;;;;1.13;0.57;;;10.10;71.70;;;;;;4985882;28;20176;-74
2021/04/03 09:23:27;;;;;;;1.05;0.50;;;10.40;70.50;;;;;;4984352;28;20044;-74
2021/04/03 09:26:04;;;;;;;4.35;0.68;;;10.50;70.40;;;;;;4987948;28;20030;-74
2021/04/03 09:28:43;;;;;;;3.58;0.90;;;10.60;68.40;;;;;;4970062;28;20034;-74
2021/04/03 09:31:10;;;;;;;1.73;0.63;;;10.70;68.70;;;;;;4985099;28;20044;-74
2021/04/03 09:33:49;;;;;;;1.45;0.50;;;10.90;74.60;;;;;;4987423;28;20018;-75
2021/04/03 09:36:17;;;;;;;5.95;0.80;;;11.00;69.80;;;;;;4989108;28;20031;-75
2021/04/03 09:38:44;;;;;;;1.30;0.47;;;10.90;76.70;;;;;;4986284;28;20030;-75
2021/04/03 09:41:26;;;;;;;2.63;0.70;;;11.00;69.90;;;;;;4984684;28;20065;-75
2021/04/03 09:43:53;;;;;;;2.13;0.80;;;11.30;67.10;;;;;;4985843;28;20126;-75
2021/04/03 09:46:19;;;;;;;1.25;0.65;;;11.40;66.40;;;;;;4986129;28;20124;-75
2021/04/03 09:48:48;;;;;;;1.10;0.65;;;11.50;65.10;;;;;;4987066;28;20134;-76
2021/04/03 09:51:14;;;;;;;1.40;0.50;;;11.70;73.70;;;;;;4983679;28;20506;-78
2021/04/03 09:53:40;;;;;;;2.42;0.70;;;11.70;69.30;;;;;;4983328;28;20065;-82
2021/04/03 09:56:06;;;;;;;2.95;0.77;;;11.60;63.70;;;;;;4988845;28;20026;-80
2021/04/03 09:58:32;;;;;;;1.17;0.57;;;11.70;65.50;;;;;;4988075;28;20030;-80
2021/04/03 10:00:58;;;;;;;1.63;0.73;;;11.50;60.60;;;;;;4987085;28;20035;-80
2021/04/03 10:03:24;;;;;;;2.25;0.70;;;11.30;61.90;;;;;;4986204;28;20026;-78
2021/04/03 10:05:50;;;;;;;2.15;0.70;;;11.10;61.30;;;;;;4988610;28;20022;-78
2021/04/03 10:08:16;;;;;;;1.13;0.63;;;11.00;62.00;;;;;;4987672;28;20032;-78
2021/04/03 10:10:42;;;;;;;4.13;0.63;;;11.00;61.60;;;;;;4985675;28;20026;-79
2021/04/03 10:13:08;;;;;;;0.43;0.43;;;11.00;62.10;;;;;;4983483;28;20034;-79
2021/04/03 10:15:35;;;;;;;0.40;0.40;;;11.30;63.10;;;;;;4988812;28;20022;-78
2021/04/03 10:18:01;;;;;;;3.47;0.47;;;11.50;63.80;;;;;;4986964;28;20022;-77
2021/04/03 10:20:30;;;;;;;4.50;0.77;;;11.80;62.60;;;;;;4967604;28;20030;-74
2021/04/03 10:22:56;;;;;;;1.27;0.52;;;11.90;61.90;;;;;;4976400;28;20027;-80
2021/04/03 10:25:21;;;;;;;0.73;0.63;;;11.90;63.80;;;;;;4980235;28;20037;-81
2021/04/03 10:27:48;;;;;;;1.75;0.52;;;11.70;56.50;;;;;;4985722;28;20045;-76
2021/04/03 10:30:14;;;;;;;1.38;0.82;;;11.50;58.00;;;;;;4984325;28;20057;-73
2021/04/03 10:32:39;;;;;;;2.65;1.00;;;11.30;57.30;;;;;;4984478;28;20038;-76
2021/04/03 10:35:05;;;;;;;0.93;0.50;;;11.30;58.20;;;;;;4986742;28;20343;-77
2021/04/03 10:37:31;;;;;;;0.75;0.47;;;11.50;59.50;;;;;;4985121;28;20479;-74
2021/04/03 10:39:57;;;;;;;1.25;0.60;;;11.80;57.60;;;;;;4987672;28;20109;-73
2021/04/03 10:42:22;;;;;;;2.05;0.75;;;12.10;55.60;;;;;;4986148;28;20034;-74
2021/04/03 10:44:48;;;;;;;4.65;0.82;;;12.20;52.10;;;;;;4984146;28;20037;-74
2021/04/03 10:47:13;;;;;;;1.38;0.70;;;12.10;52.60;;;;;;4984124;28;20034;-74
2021/04/03 10:49:39;;;;;;;1.45;0.60;;;12.00;54.20;;;;;;4986531;28;20022;-74
2021/04/03 10:52:04;;;;;;;1.10;0.70;;;11.70;54.70;;;;;;4981939;28;20049;-74
2021/04/03 10:54:30;;;;;;;3.30;0.70;;;11.50;55.60;;;;;;4981357;28;20030;-75
2021/04/03 10:56:56;;;;;;;1.60;0.50;;;11.20;55.50;;;;;;4987670;28;20092;-75
2021/04/03 10:59:21;;;;;;;1.77;0.60;;;11.00;56.30;;;;;;4987132;28;20031;-72
2021/04/03 11:01:48;;;;;;;0.70;0.60;;;10.90;59.70;;;;;;4982368;28;20035;-75
2021/04/03 11:04:14;;;;;;;1.65;0.60;;;10.80;60.00;;;;;;4987784;28;20022;-76
2021/04/03 11:06:40;;;;;;;0.85;0.47;;;10.80;59.70;;;;;;4982621;28;20022;-76
2021/04/03 11:09:06;;;;;;;3.22;0.70;;;10.70;59.50;;;;;;4987540;28;20231;-76
2021/04/03 11:11:31;;;;;;;0.60;0.47;;;10.70;59.90;;;;;;4981862;28;20094;-76
2021/04/03 11:13:57;;;;;;;2.55;0.80;;;10.70;59.50;;;;;;4976154;28;20389;-74
2021/04/03 11:16:22;;;;;;;1.85;0.77;;;10.70;60.30;;;;;;4983897;28;20134;-74
2021/04/03 11:18:48;;;;;;;2.60;1.10;;;10.60;60.90;;;;;;4987289;28;20458;-74
2021/04/03 11:21:14;;;;;;;0.47;0.32;;;10.70;60.40;;;;;;4986274;28;20026;-74
2021/04/03 11:23:39;;;;;;;0.95;0.70;;;10.80;59.90;;;;;;4989984;28;20026;-75
2021/04/03 11:26:05;;;;;;;3.80;0.50;;;11.00;59.80;;;;;;4986326;28;20033;-74
2021/04/03 11:28:31;;;;;;;3.15;0.52;;;11.10;61.70;;;;;;4985918;28;20262;-74
2021/04/03 11:30:56;;;;;;;1.40;0.40;;;11.10;58.90;;;;;;4988125;28;20485;-74
2021/04/03 11:33:22;;;;;;;0.57;0.57;;;11.00;58.10;;;;;;4977811;28;20054;-74
2021/04/03 11:35:50;;;;;;;2.65;0.70;;;11.00;58.60;;;;;;4977250;28;20026;-74
2021/04/03 11:38:15;;;;;;;3.10;0.80;;;11.00;58.50;;;;;;4983527;28;20068;-74
2021/04/03 11:40:41;;;;;;;0.73;0.63;;;11.10;58.60;;;;;;4984809;28;20066;-73
2021/04/03 11:43:06;;;;;;;1.50;0.60;;;11.20;59.10;;;;;;4977663;28;20113;-72
2021/04/03 11:45:32;;;;;;;0.98;0.47;;;11.50;59.20;;;;;;4972284;28;20041;-73
2021/04/03 11:47:57;;;;;;;0.45;0.45;;;11.70;56.60;;;;;;4977853;28;20038;-74
2021/04/03 11:50:25;;;;;;;0.90;0.52;;;12.00;56.40;;;;;;4980898;28;20034;-73
2021/04/03 11:52:52;;;;;;;5.03;0.60;;;12.70;58.60;;;;;;4983549;28;20560;-74
2021/04/03 11:55:18;;;;;;;0.60;0.60;;;13.50;56.50;;;;;;4985628;28;20049;-72
2021/04/03 11:57:44;;;;;;;1.38;0.50;;;13.60;52.80;;;;;;4990060;28;20472;-76
2021/04/03 12:00:10;;;;;;;4.00;0.60;;;13.40;52.30;;;;;;4982603;28;20030;-74
2021/04/03 12:02:39;;;;;;;0.80;0.52;;;13.20;50.20;;;;;;4988137;28;20030;-74
2021/04/03 12:05:07;;;;;;;2.83;0.55;;;13.10;50.70;;;;;;4978195;28;20583;-73
2021/04/03 12:07:41;;;;;;;1.85;0.80;;;13.30;50.70;;;;;;4988488;28;20120;-75
2021/04/03 12:10:15;;;;;;;0.68;0.47;;;13.70;51.10;;;;;;4966201;28;20080;-74
2021/04/03 12:12:41;;;;;;;2.50;0.73;;;14.30;51.20;;;;;;4981813;28;20031;-73
2021/04/03 12:15:08;;;;;;;1.00;0.45;;;14.60;49.20;;;;;;4989462;28;21082;-81
2021/04/03 12:17:35;;;;;;;0.98;0.60;;;14.70;48.00;;;;;;4988456;28;20077;-79
2021/04/03 12:20:00;;;;;;;3.03;0.80;;;14.60;48.80;;;;;;4989902;28;20769;-78
2021/04/03 12:22:26;;;;;;;1.20;0.60;;;14.50;48.20;;;;;;4988987;28;20169;-80
2021/04/03 12:24:51;;;;;;;1.35;0.88;;;14.40;47.40;;;;;;4990089;28;20121;-77
2021/04/03 12:27:17;;;;;;;1.70;0.60;;;14.70;53.50;;;;;;4985160;28;20026;-77
2021/04/03 12:29:42;;;;;;;0.40;0.40;;;15.50;44.90;;;;;;4985576;28;20054;-76
2021/04/03 12:32:08;;;;;;;0.45;0.40;;;16.40;43.80;;;;;;4990675;28;20109;-80
2021/04/03 12:34:34;;;;;;;2.15;0.50;;;16.60;42.00;;;;;;4990026;28;20452;-77
2021/04/03 12:37:00;;;;;;;1.38;0.40;;;16.50;42.30;;;;;;4990723;28;20033;-76
2021/04/03 12:39:25;;;;;;;1.80;0.52;;;16.10;41.80;;;;;;4983633;28;20025;-75
2021/04/03 12:41:51;;;;;;;2.63;0.40;;;15.60;41.70;;;;;;4987784;28;20042;-75
2021/04/03 12:44:16;;;;;;;4.22;0.80;;;16.00;43.50;;;;;;4985956;28;20085;-78
2021/04/03 12:46:42;;;;;;;0.47;0.40;;;17.30;42.40;;;;;;4982866;28;20077;-77
2021/04/03 12:49:08;;;;;;;1.40;0.47;;;18.60;38.80;;;;;;4990487;28;20112;-76
2021/04/03 12:51:34;;;;;;;3.20;0.60;;;19.20;38.70;;;;;;4987915;28;20054;-76
2021/04/03 12:54:00;;;;;;;1.48;0.60;;;18.60;37.20;;;;;;4983073;28;20022;-76
2021/04/03 12:56:25;;;;;;;0.47;0.40;;;17.30;36.60;;;;;;4989914;28;20036;-77